Whiteman AFB, Missouri
Current Conditions -  °F | °C
As of 11:58 AM on Thursday 30 Oct 2014 (Local Time) from KSZL Reporting Station
Broken Clouds Broken Clouds  
Wind Chill: 54°   Ceiling: 12000
Heat Index: 54°   Visibility: 10mi
Dew Point: 47°   Wind: 9mph
Humidity: 78%   Direction: 170°S
Pressure: 29.99"   Gusts: NA
Location:  38.73°N, 93.55°W
Report Text: KSZL 301658Z 17008KT 10SM FEW028 SCT085 BKN120 12/08 A2999 RMK AO2A SLP160 P0002 T01210084 $
Loading
Personal Weather Stations






























Interactive Weather Map
Tropical Storm Tracking
New forecast layout! Learn more

10-Day Weather Forecast

Advertisements
Track Severe Weather on mobile